Impacts TAF Board
For situational awareness. Not to be used for flight planning purposes.
IDs:

KBVI - Beaver Falls Arpt, PA, US

Issued at 1833 UTC 02 Oct 2022
Updated at 1940 UTC 02 Oct 2022
Potential Impact None Slight Moderate High
Time1935Z 02/20Z 02/21Z 02/22Z 02/23Z 03/00Z 03/01Z 03/02Z 03/03Z 03/04Z 03/05Z 03/06Z 03/07Z 03/08Z>>
Type OBS PRVL PRVL PRVL PRVL PRVL PRVL PRVL PRVL PRVL PRVL PRVL PRVL PRVL
VIS 10 >6 >6 >6 >6 >6 >6 >6 >6 >6 >6 >6 >6 >6
CIG -- -- -- -- -- -- -- -- -- -- -- -- -- --
Cover -- SCT SCT SCT SKC SKC SKC SKC SKC SKC SKC SKC SKC SKC
FltCat VFR VFR VFR VFR VFR VFR VFR VFR VFR VFR VFR VFR VFR VFR
WX -- -- -- -- -- -- -- -- -- -- -- -- -- --
WDir 360 10 10 10 20 20 20 20 20 20 20 20 20 20
WSpd 5 10 10 10 5 5 5 5 5 5 5 5 5 5
WGst -- -- -- -- -- -- -- -- -- -- -- -- -- --
WSHgt -- -- -- -- -- -- -- -- -- -- -- -- -- --
WSDir -- -- -- -- -- -- -- -- -- -- -- -- -- --
WSSpd -- -- -- -- -- -- -- -- -- -- -- -- -- --
Raw TAF
KBVI 021833Z 0219/0318 01010KT P6SM SCT040
  FM022300 02005KT P6SM SKC AMD LTD TO VIS WIND AND WX


Raw METAR
KBVI 021935Z AUTO 36005KT 10SM 20/09 A3016 RMK AO2 T02010086
KBVI 021915Z AUTO 01008KT 350V060 10SM 21/09 A3016 RMK AO2 T02050085
KBVI 021855Z AUTO 01008G14KT 10SM 20/08 A3016 RMK AO2 T02000075
KBVI 021835Z AUTO 36007G15KT 10SM 19/08 A3016 RMK AO2 T01940076
KBVI 021815Z AUTO 36012G16KT 10SM 19/07 A3016 RMK AO2 T01890073
KBVI 021755Z AUTO 01007G16KT 340V040 10SM 19/08 A3016 RMK AO2 T01870075
KBVI 021735Z AUTO 36010G15KT 10SM 18/08 A3017 RMK AO2 T01840080
KBVI 021715Z AUTO 03005G14KT 10SM 18/08 A3017 RMK AO2 T01810082
KBVI 021655Z AUTO 01008G15KT 340V040 10SM 17/08 A3017 RMK AO2 T01710082
KBVI 021635Z AUTO 02010G15KT 10SM 17/09 A3017 RMK AO2 T01650085

METAR Board
Radar Display
Forecast Discussion
For situational awareness. Not to be used for flight planning purposes.